Time;durP1;ratioP1;P1;durP2;ratioP2;P2;SDS_P1;SDS_P2;PMS_P1;PMS_P2;Temp;Humidity;BMP_temperature;BMP_pressure;BME280_temperature;BME280_humidity;BME280_pressure;Samples;Min_cycle;Max_cycle;Signal;HPM_P1;HPM_P2
2022/08/18 00:01:42;;;;;;;12.23;11.13;;;;;;;;;;5039388;28;20202;-64
2022/08/18 00:04:15;;;;;;;13.23;12.03;;;;;;;;;;5050209;28;20212;-65
2022/08/18 00:07:05;;;;;;;13.77;12.57;;;;;;;;;;5064329;28;20284;-65
2022/08/18 00:09:36;;;;;;;13.17;11.90;;;;;;;;;;5051593;28;20795;-64
2022/08/18 00:12:15;;;;;;;13.50;12.30;;;;;;;;;;5054379;28;20205;-65
2022/08/18 00:14:50;;;;;;;12.70;11.70;;;;;;;;;;5049822;28;20208;-65
2022/08/18 00:17:19;;;;;;;14.67;13.17;;;;;;;;;;5068023;28;20201;-64
2022/08/18 00:19:48;;;;;;;13.93;12.73;;;;;;;;;;5066184;28;20220;-64
2022/08/18 00:22:18;;;;;;;13.60;12.37;;;;;;;;;;5069101;28;20189;-68
2022/08/18 00:25:02;;;;;;;13.77;12.53;;;;;;;;;;5055493;28;20206;-64
2022/08/18 00:27:36;;;;;;;13.67;12.50;;;;;;;;;;5067421;28;20205;-64
2022/08/18 00:30:06;;;;;;;13.23;12.07;;;;;;;;;;5058976;28;20206;-65
2022/08/18 00:32:38;;;;;;;13.33;12.23;;;;;;;;;;5067976;28;20198;-64
2022/08/18 00:35:14;;;;;;;13.33;12.13;;;;;;;;;;5065446;28;20811;-64
2022/08/18 00:37:50;;;;;;;13.83;12.53;;;;;;;;;;5058019;28;20213;-64
2022/08/18 00:40:28;;;;;;;13.40;12.30;;;;;;;;;;5065742;28;20260;-64
2022/08/18 00:43:08;;;;;;;13.33;12.20;;;;;;;;;;5064296;28;20206;-64
2022/08/18 00:45:41;;;;;;;13.30;12.13;;;;;;;;;;5066761;28;20648;-64
2022/08/18 00:48:15;;;;;;;14.17;12.70;;;;;;;;;;5045176;28;20205;-65
2022/08/18 00:50:56;;;;;;;13.87;12.57;;;;;;;;;;5051553;28;20228;-64
2022/08/18 00:53:55;;;;;;;14.30;13.00;;;;;;;;;;5053211;28;20209;-64
2022/08/18 00:56:30;;;;;;;13.77;12.57;;;;;;;;;;5043180;28;20287;-64
2022/08/18 00:59:12;;;;;;;13.77;12.43;;;;;;;;;;5063382;28;20679;-64
2022/08/18 01:01:46;;;;;;;14.33;12.93;;;;;;;;;;5049343;28;20249;-64
2022/08/18 01:04:22;;;;;;;14.00;12.70;;;;;;;;;;5053882;28;20198;-64
2022/08/18 01:07:01;;;;;;;14.20;12.70;;;;;;;;;;5067290;28;20217;-64
2022/08/18 01:09:37;;;;;;;13.20;12.00;;;;;;;;;;5065017;28;20205;-64
2022/08/18 01:12:09;;;;;;;14.10;12.70;;;;;;;;;;5044527;28;21224;-64
2022/08/18 01:15:01;;;;;;;13.97;12.57;;;;;;;;;;5054494;28;20225;-64
2022/08/18 01:23:21;;;;;;;13.23;12.13;;;;;;;;;;5055985;28;20194;-64
2022/08/18 01:26:02;;;;;;;13.47;12.37;;;;;;;;;;5043998;28;20211;-64
2022/08/18 01:28:35;;;;;;;12.93;11.83;;;;;;;;;;5026635;28;20198;-64
2022/08/18 01:31:10;;;;;;;12.90;11.70;;;;;;;;;;5039071;28;20206;-65
2022/08/18 01:33:45;;;;;;;13.27;12.07;;;;;;;;;;5053977;28;20528;-64
2022/08/18 01:36:20;;;;;;;12.93;11.73;;;;;;;;;;5048065;28;20214;-64
2022/08/18 01:38:55;;;;;;;12.03;11.03;;;;;;;;;;5053609;28;20509;-64
2022/08/18 01:41:27;;;;;;;13.10;11.80;;;;;;;;;;5053990;28;20201;-65
2022/08/18 01:44:00;;;;;;;12.13;11.03;;;;;;;;;;5060191;28;20205;-65
2022/08/18 01:46:34;;;;;;;12.47;11.37;;;;;;;;;;5051989;28;20195;-65
2022/08/18 01:49:06;;;;;;;12.07;11.03;;;;;;;;;;5062668;28;20216;-64
2022/08/18 01:51:36;;;;;;;12.20;11.10;;;;;;;;;;5049242;28;20221;-64
2022/08/18 01:54:11;;;;;;;11.60;10.60;;;;;;;;;;5062514;28;20216;-64
2022/08/18 01:56:44;;;;;;;12.23;11.13;;;;;;;;;;5047972;28;20650;-64
2022/08/18 01:59:18;;;;;;;12.33;11.23;;;;;;;;;;5053533;28;20580;-64
2022/08/18 02:01:47;;;;;;;12.43;11.33;;;;;;;;;;5050099;28;20210;-64
2022/08/18 02:04:30;;;;;;;11.07;10.13;;;;;;;;;;5060790;28;20846;-64
2022/08/18 02:07:07;;;;;;;11.43;10.43;;;;;;;;;;5065239;28;20870;-64
2022/08/18 02:09:45;;;;;;;11.57;10.47;;;;;;;;;;5048522;28;20258;-64
2022/08/18 02:12:17;;;;;;;11.73;10.57;;;;;;;;;;5055627;28;20224;-64
2022/08/18 02:14:47;;;;;;;11.77;10.77;;;;;;;;;;5066691;28;20690;-64
2022/08/18 02:17:19;;;;;;;11.40;10.50;;;;;;;;;;5044682;28;20642;-64
2022/08/18 02:19:48;;;;;;;11.40;10.40;;;;;;;;;;5060532;28;20822;-64
2022/08/18 02:22:31;;;;;;;11.10;10.17;;;;;;;;;;5066974;28;20244;-64
2022/08/18 02:25:01;;;;;;;11.47;10.47;;;;;;;;;;5059169;28;20242;-64
2022/08/18 02:27:30;;;;;;;11.40;10.40;;;;;;;;;;5065020;28;20607;-65
2022/08/18 02:30:06;;;;;;;11.13;10.23;;;;;;;;;;5058781;28;20272;-65
2022/08/18 02:32:37;;;;;;;11.13;10.20;;;;;;;;;;5045052;28;20222;-64
2022/08/18 02:35:06;;;;;;;10.90;10.10;;;;;;;;;;5058340;28;20226;-64
2022/08/18 02:37:41;;;;;;;11.37;10.37;;;;;;;;;;5054177;28;20237;-65
2022/08/18 02:40:13;;;;;;;11.33;10.27;;;;;;;;;;5060309;28;20185;-65
2022/08/18 02:42:42;;;;;;;10.67;9.77;;;;;;;;;;5061034;28;20264;-64
2022/08/18 02:45:12;;;;;;;11.47;10.43;;;;;;;;;;5060401;28;20198;-64
2022/08/18 02:47:42;;;;;;;10.93;9.93;;;;;;;;;;5046998;28;20208;-64
2022/08/18 02:50:15;;;;;;;11.77;10.77;;;;;;;;;;5052925;28;20229;-64
2022/08/18 02:52:46;;;;;;;10.80;9.90;;;;;;;;;;5041969;28;20224;-64
2022/08/18 02:55:15;;;;;;;11.53;10.43;;;;;;;;;;5060919;28;20246;-65
2022/08/18 02:57:53;;;;;;;10.80;9.80;;;;;;;;;;5049723;28;20641;-64
2022/08/18 03:00:24;;;;;;;9.93;9.03;;;;;;;;;;5033688;28;20207;-64
2022/08/18 03:02:55;;;;;;;11.07;10.10;;;;;;;;;;5049629;28;20198;-64
2022/08/18 03:05:29;;;;;;;10.80;9.80;;;;;;;;;;5029258;28;20281;-64
2022/08/18 03:07:59;;;;;;;10.27;9.30;;;;;;;;;;5044036;28;20209;-64
2022/08/18 03:10:29;;;;;;;10.70;9.67;;;;;;;;;;5043559;28;20186;-64
2022/08/18 03:13:02;;;;;;;11.10;10.10;;;;;;;;;;5041568;28;20323;-64
2022/08/18 03:15:33;;;;;;;10.77;9.63;;;;;;;;;;5048355;28;20222;-64
2022/08/18 03:18:02;;;;;;;10.40;9.50;;;;;;;;;;5040178;28;20253;-65
2022/08/18 03:20:32;;;;;;;9.97;9.13;;;;;;;;;;5020066;28;20289;-64
2022/08/18 03:23:05;;;;;;;10.10;9.23;;;;;;;;;;5044730;28;20193;-69
2022/08/18 03:25:36;;;;;;;10.47;9.53;;;;;;;;;;5042654;28;20839;-64
2022/08/18 03:28:05;;;;;;;10.67;9.57;;;;;;;;;;5048546;28;20206;-64
2022/08/18 03:30:33;;;;;;;10.20;9.40;;;;;;;;;;5047287;28;20245;-64
2022/08/18 03:33:04;;;;;;;9.30;8.43;;;;;;;;;;5044973;28;20205;-64
2022/08/18 03:35:36;;;;;;;9.97;9.10;;;;;;;;;;5037113;28;20777;-64
2022/08/18 03:38:05;;;;;;;9.97;9.17;;;;;;;;;;5026459;28;20222;-64
2022/08/18 03:40:36;;;;;;;9.47;8.67;;;;;;;;;;5046086;28;20195;-64
2022/08/18 03:43:06;;;;;;;9.77;8.97;;;;;;;;;;5047737;28;20199;-64
2022/08/18 03:46:02;;;;;;;9.97;9.10;;;;;;;;;;5025463;28;20195;-64
2022/08/18 03:48:35;;;;;;;9.33;8.53;;;;;;;;;;5031534;28;20575;-65
2022/08/18 03:51:07;;;;;;;9.50;8.70;;;;;;;;;;5022071;28;20215;-64
2022/08/18 03:53:40;;;;;;;9.60;8.80;;;;;;;;;;5041647;28;20218;-64
2022/08/18 03:56:16;;;;;;;9.27;8.47;;;;;;;;;;5032910;28;20446;-64
2022/08/18 03:58:51;;;;;;;9.23;8.40;;;;;;;;;;5074881;28;20202;-65
2022/08/18 04:01:24;;;;;;;8.83;8.03;;;;;;;;;;5068471;28;20210;-64
2022/08/18 04:04:01;;;;;;;10.60;8.87;;;;;;;;;;5065800;28;20224;-65
2022/08/18 04:06:34;;;;;;;9.53;8.63;;;;;;;;;;5046522;28;20200;-64
2022/08/18 04:09:10;;;;;;;8.50;7.80;;;;;;;;;;5065912;28;20201;-64
2022/08/18 04:11:44;;;;;;;9.23;8.43;;;;;;;;;;5083156;28;20708;-64
2022/08/18 04:14:16;;;;;;;8.73;8.03;;;;;;;;;;5074760;28;20231;-64
2022/08/18 04:16:50;;;;;;;9.10;8.40;;;;;;;;;;5077060;28;20626;-64
2022/08/18 04:19:19;;;;;;;10.17;9.17;;;;;;;;;;5087029;28;20250;-64
2022/08/18 04:22:00;;;;;;;9.23;8.43;;;;;;;;;;5058514;28;20433;-63
2022/08/18 04:24:33;;;;;;;8.77;8.00;;;;;;;;;;5072292;28;20215;-64
2022/08/18 04:27:08;;;;;;;9.23;8.27;;;;;;;;;;5068669;28;20250;-64
2022/08/18 04:29:48;;;;;;;9.00;8.20;;;;;;;;;;5077791;28;20685;-64
2022/08/18 04:32:18;;;;;;;7.93;7.13;;;;;;;;;;5072579;28;20248;-64
2022/08/18 04:35:00;;;;;;;7.27;6.67;;;;;;;;;;5066506;28;20202;-64
2022/08/18 04:37:44;;;;;;;8.97;7.33;;;;;;;;;;5079015;28;20235;-64
2022/08/18 04:40:13;;;;;;;10.17;7.67;;;;;;;;;;5082168;28;20189;-64
2022/08/18 04:42:58;;;;;;;8.50;7.37;;;;;;;;;;5081114;28;20193;-64
2022/08/18 04:45:31;;;;;;;8.30;7.60;;;;;;;;;;5067042;28;20259;-63
2022/08/18 04:48:04;;;;;;;8.57;7.83;;;;;;;;;;5057434;28;20663;-65
2022/08/18 04:50:39;;;;;;;8.30;7.50;;;;;;;;;;5067833;28;20204;-64
2022/08/18 04:56:02;;;;;;;7.90;7.07;;;;;;;;;;5084259;28;20228;-64
2022/08/18 04:58:50;;;;;;;7.43;6.73;;;;;;;;;;5076678;28;20201;-65
2022/08/18 05:01:28;;;;;;;7.70;6.97;;;;;;;;;;5084897;27;20324;-64
2022/08/18 05:04:13;;;;;;;7.63;6.93;;;;;;;;;;5077949;28;20185;-64
2022/08/18 05:06:45;;;;;;;7.93;7.17;;;;;;;;;;5087397;28;20521;-64
2022/08/18 05:09:16;;;;;;;7.70;7.00;;;;;;;;;;5055926;28;20686;-64
2022/08/18 05:11:51;;;;;;;7.87;6.77;;;;;;;;;;5065615;28;20602;-64
2022/08/18 05:14:24;;;;;;;8.47;6.80;;;;;;;;;;5064469;28;20220;-64
2022/08/18 05:16:57;;;;;;;7.60;6.90;;;;;;;;;;5087898;28;20195;-63
2022/08/18 05:19:26;;;;;;;7.87;7.23;;;;;;;;;;5065076;28;20227;-64
2022/08/18 05:22:00;;;;;;;8.03;7.30;;;;;;;;;;5061955;28;20259;-64
2022/08/18 05:24:32;;;;;;;8.37;7.57;;;;;;;;;;5064198;28;20213;-64
2022/08/18 05:27:06;;;;;;;7.80;7.00;;;;;;;;;;5072474;28;20195;-64
2022/08/18 05:29:35;;;;;;;8.70;7.87;;;;;;;;;;5084756;28;20201;-64
2022/08/18 05:32:13;;;;;;;8.33;7.60;;;;;;;;;;5078269;28;20772;-64
2022/08/18 05:35:08;;;;;;;8.63;7.73;;;;;;;;;;5060563;28;20204;-64
2022/08/18 05:37:46;;;;;;;9.27;8.47;;;;;;;;;;5078661;28;20651;-64
2022/08/18 05:40:20;;;;;;;14.23;7.40;;;;;;;;;;5062571;28;20189;-64
2022/08/18 05:42:59;;;;;;;8.20;7.40;;;;;;;;;;5086892;28;20192;-64
2022/08/18 05:45:30;;;;;;;8.10;7.30;;;;;;;;;;5081867;28;20246;-63
2022/08/18 05:48:05;;;;;;;8.23;7.53;;;;;;;;;;5085357;28;20262;-64
2022/08/18 05:50:36;;;;;;;10.50;7.57;;;;;;;;;;5078892;28;20201;-64
2022/08/18 05:53:13;;;;;;;9.47;8.30;;;;;;;;;;5062039;28;20604;-64
2022/08/18 05:58:54;;;;;;;9.90;8.90;;;;;;;;;;5080891;28;20694;-64
2022/08/18 06:01:23;;;;;;;8.70;7.97;;;;;;;;;;5082242;28;20678;-65
2022/08/18 06:03:59;;;;;;;9.77;8.97;;;;;;;;;;5084102;28;20201;-65
2022/08/18 06:06:36;;;;;;;8.80;8.00;;;;;;;;;;5069949;28;20207;-64
2022/08/18 06:09:32;;;;;;;9.77;8.87;;;;;;;;;;5065422;28;20243;-64
2022/08/18 06:12:27;;;;;;;9.37;8.47;;;;;;;;;;5068910;28;20217;-64
2022/08/18 06:15:19;;;;;;;9.03;8.23;;;;;;;;;;5069819;28;20210;-64
2022/08/18 06:18:07;;;;;;;9.60;8.70;;;;;;;;;;5077278;28;20233;-64
2022/08/18 06:20:48;;;;;;;9.10;8.20;;;;;;;;;;5072154;28;20665;-65
2022/08/18 06:23:30;;;;;;;8.70;7.90;;;;;;;;;;5081540;28;20249;-64
2022/08/18 06:26:16;;;;;;;12.57;9.47;;;;;;;;;;5074595;28;20831;-64
2022/08/18 06:29:07;;;;;;;10.57;9.57;;;;;;;;;;5079832;28;20194;-64
2022/08/18 06:31:59;;;;;;;9.80;8.80;;;;;;;;;;5070098;28;20206;-63
2022/08/18 06:35:01;;;;;;;8.97;8.07;;;;;;;;;;5068023;28;20202;-64
2022/08/18 06:40:40;;;;;;;9.53;8.63;;;;;;;;;;5075044;28;20202;-64
2022/08/18 06:43:14;;;;;;;9.57;8.67;;;;;;;;;;5081071;28;20267;-64
2022/08/18 06:45:53;;;;;;;8.50;7.80;;;;;;;;;;5063316;28;20233;-64
2022/08/18 06:48:32;;;;;;;8.10;7.27;;;;;;;;;;5074381;28;20635;-64
2022/08/18 06:51:02;;;;;;;9.10;8.17;;;;;;;;;;5074618;28;20189;-64
2022/08/18 06:53:50;;;;;;;8.50;7.80;;;;;;;;;;5063879;28;20227;-65
2022/08/18 06:56:38;;;;;;;14.50;7.70;;;;;;;;;;5086325;28;20241;-65
2022/08/18 06:59:25;;;;;;;7.47;6.77;;;;;;;;;;5083457;28;20205;-65
2022/08/18 07:02:16;;;;;;;9.13;6.73;;;;;;;;;;5066562;28;20210;-66
2022/08/18 07:05:18;;;;;;;10.10;7.03;;;;;;;;;;5043553;28;20205;-66
2022/08/18 07:08:09;;;;;;;7.23;6.53;;;;;;;;;;5057775;28;20207;-65
2022/08/18 07:10:47;;;;;;;11.93;8.03;;;;;;;;;;5083673;28;20205;-63
2022/08/18 07:13:27;;;;;;;8.40;7.50;;;;;;;;;;5058828;28;20213;-64
2022/08/18 07:16:16;;;;;;;9.23;8.37;;;;;;;;;;5064663;28;20854;-66
2022/08/18 07:19:08;;;;;;;9.13;8.23;;;;;;;;;;5081260;28;20250;-66
2022/08/18 07:21:43;;;;;;;9.07;8.17;;;;;;;;;;5077478;28;20201;-64
2022/08/18 07:24:21;;;;;;;9.13;8.33;;;;;;;;;;5068298;28;20250;-66
2022/08/18 07:27:06;;;;;;;11.23;8.70;;;;;;;;;;5068000;28;20196;-64
2022/08/18 07:29:40;;;;;;;11.07;10.07;;;;;;;;;;5083277;28;20193;-65
2022/08/18 07:32:18;;;;;;;11.27;10.00;;;;;;;;;;5065786;28;20204;-64
2022/08/18 07:34:54;;;;;;;11.03;10.10;;;;;;;;;;5082864;28;20645;-64
2022/08/18 07:37:28;;;;;;;10.87;9.87;;;;;;;;;;5078972;28;20288;-64
2022/08/18 07:40:05;;;;;;;10.80;9.90;;;;;;;;;;5080751;28;20200;-64
2022/08/18 07:42:49;;;;;;;11.93;10.77;;;;;;;;;;5067684;28;20212;-63
2022/08/18 07:45:41;;;;;;;11.53;10.33;;;;;;;;;;5088517;28;20204;-64
2022/08/18 07:48:39;;;;;;;10.80;9.80;;;;;;;;;;5059547;28;20290;-68
2022/08/18 07:51:24;;;;;;;10.80;9.70;;;;;;;;;;5050726;28;20213;-64
2022/08/18 07:54:23;;;;;;;10.70;9.30;;;;;;;;;;5067328;28;20193;-65
2022/08/18 07:57:33;;;;;;;10.27;9.20;;;;;;;;;;5081400;28;20248;-63
2022/08/18 08:00:28;;;;;;;10.50;9.47;;;;;;;;;;5072238;28;20223;-64
2022/08/18 08:03:32;;;;;;;10.20;9.30;;;;;;;;;;5088744;28;20189;-64
2022/08/18 08:06:17;;;;;;;101.93;35.20;;;;;;;;;;5084240;28;20197;-64
2022/08/18 08:08:54;;;;;;;159.50;54.03;;;;;;;;;;5062947;28;20260;-64
2022/08/18 08:11:32;;;;;;;121.17;41.30;;;;;;;;;;5086166;28;20200;-64
2022/08/18 08:14:34;;;;;;;60.63;26.67;;;;;;;;;;5076133;28;20204;-64
2022/08/18 08:17:26;;;;;;;36.20;17.70;;;;;;;;;;4998438;28;20211;-64
2022/08/18 08:20:26;;;;;;;22.53;13.10;;;;;;;;;;5023272;28;20202;-64
2022/08/18 08:23:08;;;;;;;14.77;10.23;;;;;;;;;;5062346;28;20201;-65
2022/08/18 08:25:55;;;;;;;11.13;9.63;;;;;;;;;;5071814;28;20711;-64
2022/08/18 08:28:42;;;;;;;10.50;8.90;;;;;;;;;;5079655;28;20559;-64
2022/08/18 08:31:18;;;;;;;9.63;8.50;;;;;;;;;;5081346;28;20205;-65
2022/08/18 08:34:22;;;;;;;8.87;7.97;;;;;;;;;;5064474;28;20200;-65
2022/08/18 08:36:54;;;;;;;9.53;8.27;;;;;;;;;;5082348;28;20251;-65
2022/08/18 08:39:46;;;;;;;8.70;7.33;;;;;;;;;;5067882;28;20216;-65
2022/08/18 08:42:24;;;;;;;7.97;7.17;;;;;;;;;;5058190;28;20626;-64
2022/08/18 08:45:08;;;;;;;8.70;6.93;;;;;;;;;;5083340;28;20200;-64
2022/08/18 08:47:57;;;;;;;9.17;7.03;;;;;;;;;;5084426;28;20194;-64
2022/08/18 08:50:49;;;;;;;9.33;8.53;;;;;;;;;;5083692;28;20193;-64
2022/08/18 08:53:39;;;;;;;7.87;7.07;;;;;;;;;;5082915;28;20637;-65
2022/08/18 08:56:09;;;;;;;7.90;6.97;;;;;;;;;;5075930;28;20332;-64
2022/08/18 08:58:48;;;;;;;8.13;7.27;;;;;;;;;;5086499;28;20224;-64
2022/08/18 09:01:31;;;;;;;8.50;6.40;;;;;;;;;;5097030;28;20249;-65
2022/08/18 09:04:17;;;;;;;7.27;6.53;;;;;;;;;;5081955;28;20197;-64
2022/08/18 09:07:05;;;;;;;8.53;7.03;;;;;;;;;;5087400;28;20200;-64
2022/08/18 09:10:00;;;;;;;16.47;7.93;;;;;;;;;;5070648;28;20229;-65
2022/08/18 09:12:33;;;;;;;45.00;11.70;;;;;;;;;;5076791;28;20217;-65
2022/08/18 09:15:25;;;;;;;37.23;13.70;;;;;;;;;;5086324;28;20288;-65
2022/08/18 09:17:57;;;;;;;53.53;12.40;;;;;;;;;;5079095;28;20287;-65
2022/08/18 09:20:53;;;;;;;43.80;11.60;;;;;;;;;;5080801;28;20284;-65
2022/08/18 09:23:30;;;;;;;36.83;11.20;;;;;;;;;;5084484;28;20193;-65
2022/08/18 09:26:19;;;;;;;31.57;10.00;;;;;;;;;;5050606;28;20618;-65
2022/08/18 09:28:59;;;;;;;46.57;10.83;;;;;;;;;;5082456;28;20225;-65
2022/08/18 09:31:33;;;;;;;32.17;9.97;;;;;;;;;;5083961;28;20216;-65
2022/08/18 09:34:35;;;;;;;18.93;9.10;;;;;;;;;;5080324;28;20279;-64
2022/08/18 09:37:23;;;;;;;28.83;8.20;;;;;;;;;;5065125;28;20571;-65
2022/08/18 09:43:43;;;;;;;21.70;7.97;;;;;;;;;;5077179;28;20607;-64
2022/08/18 09:46:35;;;;;;;28.13;7.93;;;;;;;;;;5072900;28;20208;-65
2022/08/18 09:49:22;;;;;;;22.80;6.80;;;;;;;;;;5081895;28;20246;-65
2022/08/18 09:52:01;;;;;;;12.70;6.63;;;;;;;;;;5082513;28;20194;-65
2022/08/18 09:54:33;;;;;;;11.87;7.03;;;;;;;;;;5076437;28;20220;-65
2022/08/18 09:57:20;;;;;;;11.37;5.87;;;;;;;;;;5080226;28;20320;-65
2022/08/18 09:59:53;;;;;;;11.23;6.10;;;;;;;;;;5062405;28;20193;-64
2022/08/18 10:02:36;;;;;;;7.67;5.37;;;;;;;;;;5083487;28;20767;-65
2022/08/18 10:05:18;;;;;;;10.07;5.40;;;;;;;;;;5078918;28;20196;-65
2022/08/18 10:07:52;;;;;;;6.87;5.30;;;;;;;;;;5076544;28;20597;-65
2022/08/18 10:10:36;;;;;;;8.50;5.70;;;;;;;;;;5080029;28;20223;-65
2022/08/18 10:13:44;;;;;;;6.30;5.40;;;;;;;;;;5078278;28;20209;-64
2022/08/18 10:16:33;;;;;;;6.67;6.00;;;;;;;;;;5080863;28;20678;-64
2022/08/18 10:19:46;;;;;;;8.00;5.60;;;;;;;;;;5067225;28;20521;-65
2022/08/18 10:22:37;;;;;;;6.63;5.47;;;;;;;;;;5071599;28;20289;-64
2022/08/18 10:25:13;;;;;;;6.40;5.20;;;;;;;;;;5076026;28;20192;-65
2022/08/18 10:28:00;;;;;;;7.23;6.20;;;;;;;;;;5065356;28;20638;-64
2022/08/18 10:30:47;;;;;;;6.93;6.33;;;;;;;;;;5083439;28;20276;-65
2022/08/18 10:33:51;;;;;;;6.77;5.43;;;;;;;;;;5085059;28;20205;-65
2022/08/18 10:36:43;;;;;;;5.77;5.27;;;;;;;;;;5078677;28;20270;-64
2022/08/18 10:39:36;;;;;;;5.37;4.73;;;;;;;;;;5065222;28;20319;-64
2022/08/18 10:42:27;;;;;;;6.23;5.13;;;;;;;;;;5077243;28;20192;-65
2022/08/18 10:45:30;;;;;;;7.50;5.43;;;;;;;;;;5076084;28;20201;-65
2022/08/18 10:48:18;;;;;;;7.93;5.43;;;;;;;;;;4977362;28;20274;-65
2022/08/18 10:51:15;;;;;;;9.00;6.40;;;;;;;;;;4984504;28;20774;-65
2022/08/18 10:54:07;;;;;;;7.40;6.33;;;;;;;;;;4977813;28;20287;-65
2022/08/18 10:56:39;;;;;;;8.33;6.90;;;;;;;;;;4979476;28;20244;-65
2022/08/18 10:59:54;;;;;;;7.67;6.80;;;;;;;;;;4983766;28;20215;-65
2022/08/18 11:02:38;;;;;;;7.27;4.97;;;;;;;;;;4962324;28;20204;-65
2022/08/18 11:05:13;;;;;;;5.83;5.33;;;;;;;;;;4981882;28;20204;-65
2022/08/18 11:07:47;;;;;;;7.73;5.70;;;;;;;;;;4982270;28;20216;-65
2022/08/18 11:10:49;;;;;;;6.53;5.70;;;;;;;;;;5022088;28;20268;-64
2022/08/18 11:14:19;;;;;;;7.97;7.30;;;;;;;;;;5061386;28;20213;-65
2022/08/18 11:17:07;;;;;;;7.50;6.80;;;;;;;;;;4987113;28;20246;-65
2022/08/18 11:19:43;;;;;;;7.57;6.50;;;;;;;;;;5058548;28;20213;-65
2022/08/18 11:22:30;;;;;;;8.30;7.60;;;;;;;;;;5085946;28;20745;-66
2022/08/18 11:25:23;;;;;;;8.90;8.00;;;;;;;;;;5071698;28;20215;-65
2022/08/18 11:28:01;;;;;;;9.10;8.20;;;;;;;;;;5076497;28;20293;-65
2022/08/18 11:30:41;;;;;;;8.57;7.77;;;;;;;;;;5060816;28;20200;-65
2022/08/18 11:33:18;;;;;;;7.57;6.87;;;;;;;;;;5080767;28;20189;-65
2022/08/18 11:36:10;;;;;;;6.40;5.80;;;;;;;;;;5073253;28;20248;-65
2022/08/18 11:38:53;;;;;;;8.07;6.67;;;;;;;;;;5084338;28;20212;-65
2022/08/18 11:41:28;;;;;;;7.13;6.43;;;;;;;;;;5080421;28;20695;-65
2022/08/18 11:44:23;;;;;;;7.30;5.97;;;;;;;;;;5087261;28;20189;-65
2022/08/18 11:46:57;;;;;;;7.60;6.87;;;;;;;;;;5083342;28;20227;-65
2022/08/18 11:49:32;;;;;;;6.40;5.33;;;;;;;;;;5075917;28;20279;-65
2022/08/18 11:52:23;;;;;;;7.07;6.23;;;;;;;;;;5052723;28;20201;-64
2022/08/18 11:55:05;;;;;;;7.03;6.20;;;;;;;;;;5060609;28;20220;-63
2022/08/18 11:57:54;;;;;;;8.50;7.60;;;;;;;;;;5067074;28;20304;-63
2022/08/18 12:00:41;;;;;;;7.73;6.13;;;;;;;;;;5083832;28;20328;-64
2022/08/18 12:03:21;;;;;;;7.50;5.20;;;;;;;;;;5058462;28;20224;-65
2022/08/18 12:06:10;;;;;;;7.23;6.50;;;;;;;;;;5082759;28;20215;-65
2022/08/18 12:09:06;;;;;;;7.10;6.40;;;;;;;;;;5085582;28;20189;-64
2022/08/18 12:11:37;;;;;;;7.63;6.83;;;;;;;;;;5088161;28;20647;-64
2022/08/18 12:14:20;;;;;;;6.27;5.53;;;;;;;;;;5050064;28;20232;-64
2022/08/18 12:17:03;;;;;;;7.37;5.43;;;;;;;;;;5071363;28;20220;-64
2022/08/18 12:19:37;;;;;;;6.30;5.67;;;;;;;;;;5080287;28;20204;-65
2022/08/18 12:22:14;;;;;;;8.87;6.50;;;;;;;;;;5085947;28;20482;-64
2022/08/18 12:24:56;;;;;;;8.13;6.73;;;;;;;;;;5061127;28;20221;-63
2022/08/18 12:27:30;;;;;;;6.90;6.30;;;;;;;;;;5078077;28;20221;-63
2022/08/18 12:30:06;;;;;;;6.73;6.03;;;;;;;;;;5056283;28;20206;-63
2022/08/18 12:32:43;;;;;;;6.53;5.80;;;;;;;;;;5090536;28;20226;-64
2022/08/18 12:35:18;;;;;;;6.13;5.60;;;;;;;;;;5062385;28;20205;-64
2022/08/18 12:37:51;;;;;;;6.17;5.20;;;;;;;;;;5081940;28;20336;-63
2022/08/18 12:40:28;;;;;;;7.37;6.27;;;;;;;;;;5083421;28;20193;-64
2022/08/18 12:42:59;;;;;;;8.43;6.20;;;;;;;;;;5083168;28;20232;-63
2022/08/18 12:45:30;;;;;;;7.83;5.40;;;;;;;;;;5087725;28;20211;-63
2022/08/18 12:48:01;;;;;;;10.83;5.70;;;;;;;;;;5073469;28;20245;-64
2022/08/18 12:50:31;;;;;;;7.33;5.53;;;;;;;;;;5077109;28;20181;-63
2022/08/18 12:53:22;;;;;;;7.40;4.90;;;;;;;;;;5076881;28;20204;-63
2022/08/18 12:56:24;;;;;;;7.27;5.50;;;;;;;;;;5082546;28;20189;-64
2022/08/18 12:58:54;;;;;;;6.10;5.10;;;;;;;;;;5074972;28;20818;-64
2022/08/18 13:01:24;;;;;;;5.23;4.73;;;;;;;;;;5047500;28;20201;-64
2022/08/18 13:03:54;;;;;;;5.30;4.90;;;;;;;;;;5066055;28;20193;-63
2022/08/18 13:06:48;;;;;;;5.43;4.73;;;;;;;;;;5086084;28;20209;-63
2022/08/18 13:09:28;;;;;;;17.57;4.33;;;;;;;;;;5085843;28;20205;-64
2022/08/18 13:12:12;;;;;;;4.97;4.43;;;;;;;;;;5064991;28;23334;-64
2022/08/18 13:14:46;;;;;;;5.03;4.53;;;;;;;;;;5065077;28;20208;-64
2022/08/18 13:17:14;;;;;;;5.33;4.63;;;;;;;;;;5085559;28;20565;-64
2022/08/18 13:20:08;;;;;;;4.80;4.30;;;;;;;;;;5079287;28;20228;-63
2022/08/18 13:22:51;;;;;;;5.40;4.70;;;;;;;;;;5086259;28;20196;-63
2022/08/18 13:25:29;;;;;;;5.80;4.60;;;;;;;;;;5076937;28;20209;-64
2022/08/18 13:28:08;;;;;;;4.97;4.47;;;;;;;;;;5062603;28;20188;-63
2022/08/18 13:30:44;;;;;;;4.43;4.13;;;;;;;;;;5066524;28;20209;-64
2022/08/18 13:33:36;;;;;;;6.93;4.50;;;;;;;;;;5079302;28;20271;-65
2022/08/18 13:36:43;;;;;;;4.63;4.03;;;;;;;;;;5070827;28;20693;-64
2022/08/18 13:39:17;;;;;;;5.10;4.63;;;;;;;;;;5070771;28;20201;-64
2022/08/18 13:41:47;;;;;;;4.87;4.37;;;;;;;;;;5083758;28;20197;-64
2022/08/18 13:44:23;;;;;;;5.03;4.50;;;;;;;;;;5074628;28;20553;-64
2022/08/18 13:46:58;;;;;;;5.90;4.90;;;;;;;;;;5064507;28;20239;-64
2022/08/18 13:49:28;;;;;;;5.77;5.17;;;;;;;;;;5063956;28;20217;-64
2022/08/18 13:52:00;;;;;;;6.20;5.60;;;;;;;;;;5061500;28;20211;-63
2022/08/18 13:54:45;;;;;;;5.40;4.90;;;;;;;;;;5076252;28;20654;-64
2022/08/18 13:57:20;;;;;;;7.10;5.60;;;;;;;;;;5075737;28;20239;-64
2022/08/18 13:59:51;;;;;;;5.27;4.77;;;;;;;;;;5055038;28;20301;-64
2022/08/18 14:02:20;;;;;;;4.90;4.50;;;;;;;;;;5083384;28;20201;-64
2022/08/18 14:04:56;;;;;;;5.80;5.30;;;;;;;;;;5084575;28;20193;-64
2022/08/18 14:07:28;;;;;;;5.83;5.00;;;;;;;;;;5081248;28;20200;-64
2022/08/18 14:10:05;;;;;;;7.97;5.10;;;;;;;;;;5059372;28;20211;-63
2022/08/18 14:12:42;;;;;;;6.17;5.67;;;;;;;;;;5079284;28;20211;-63
2022/08/18 14:15:14;;;;;;;9.03;5.10;;;;;;;;;;5059531;28;20553;-63
2022/08/18 14:17:47;;;;;;;5.33;4.83;;;;;;;;;;5065390;28;20216;-64
2022/08/18 14:28:55;;;;;;;6.70;5.37;;;;;;;;;;5077434;28;20253;-65
2022/08/18 14:31:25;;;;;;;5.77;5.20;;;;;;;;;;5081688;28;20204;-64
2022/08/18 14:33:55;;;;;;;8.57;5.23;;;;;;;;;;5076442;28;20208;-65
2022/08/18 14:36:31;;;;;;;6.20;5.53;;;;;;;;;;5070126;28;20216;-65
2022/08/18 14:39:05;;;;;;;6.00;5.50;;;;;;;;;;5082203;28;20223;-65
2022/08/18 14:41:41;;;;;;;5.90;5.30;;;;;;;;;;5085372;28;20254;-65
2022/08/18 14:44:25;;;;;;;6.90;5.07;;;;;;;;;;5069849;28;20191;-65
2022/08/18 14:46:58;;;;;;;5.27;4.87;;;;;;;;;;5077261;28;20197;-65
2022/08/18 14:49:30;;;;;;;5.47;4.97;;;;;;;;;;5082675;28;20638;-65
2022/08/18 14:52:11;;;;;;;5.10;4.60;;;;;;;;;;5084423;28;20196;-64
2022/08/18 14:54:47;;;;;;;5.47;4.97;;;;;;;;;;5086467;28;20196;-64
2022/08/18 14:57:22;;;;;;;5.50;5.00;;;;;;;;;;5076391;28;20602;-65
2022/08/18 14:59:53;;;;;;;5.27;4.77;;;;;;;;;;5080000;28;20216;-65
2022/08/18 15:02:24;;;;;;;5.10;4.40;;;;;;;;;;5084775;28;20201;-65
2022/08/18 15:04:55;;;;;;;5.23;4.77;;;;;;;;;;5082478;28;20709;-65
2022/08/18 15:07:30;;;;;;;5.53;4.90;;;;;;;;;;5085115;28;20626;-64
2022/08/18 15:10:01;;;;;;;6.77;6.07;;;;;;;;;;5077742;28;20196;-64
2022/08/18 15:12:45;;;;;;;7.10;6.50;;;;;;;;;;5065292;28;20221;-64
2022/08/18 15:15:18;;;;;;;7.43;5.10;;;;;;;;;;5072604;28;20188;-64
2022/08/18 15:17:51;;;;;;;6.33;4.93;;;;;;;;;;5080801;28;20225;-64
2022/08/18 15:20:29;;;;;;;5.60;5.10;;;;;;;;;;5075204;28;20327;-64
2022/08/18 15:25:56;;;;;;;6.30;5.80;;;;;;;;;;5076095;28;20217;-64
2022/08/18 15:28:26;;;;;;;6.10;5.60;;;;;;;;;;5085902;28;20205;-64
2022/08/18 15:30:55;;;;;;;5.43;5.00;;;;;;;;;;5082976;28;20223;-64
2022/08/18 15:33:49;;;;;;;5.17;4.77;;;;;;;;;;5087496;28;20197;-63
2022/08/18 15:36:22;;;;;;;5.43;5.03;;;;;;;;;;5083939;28;20221;-64
2022/08/18 15:39:02;;;;;;;5.53;5.13;;;;;;;;;;5087157;28;20188;-64
2022/08/18 15:41:41;;;;;;;6.10;5.60;;;;;;;;;;5089171;28;20189;-63
2022/08/18 15:44:15;;;;;;;6.00;5.50;;;;;;;;;;5087211;28;20305;-64
2022/08/18 15:46:45;;;;;;;5.70;5.20;;;;;;;;;;5050333;28;20200;-64
2022/08/18 15:49:22;;;;;;;5.93;5.30;;;;;;;;;;5079951;28;20209;-64
2022/08/18 15:51:55;;;;;;;4.67;4.37;;;;;;;;;;5081344;28;20207;-64
2022/08/18 15:54:27;;;;;;;5.23;4.73;;;;;;;;;;5088738;28;20185;-64
2022/08/18 15:56:57;;;;;;;6.40;5.10;;;;;;;;;;5081826;28;20650;-64
2022/08/18 15:59:28;;;;;;;4.90;4.50;;;;;;;;;;5086521;28;20208;-64
2022/08/18 16:02:07;;;;;;;5.17;4.70;;;;;;;;;;5077575;28;20383;-64
2022/08/18 16:04:40;;;;;;;4.70;4.40;;;;;;;;;;5072931;28;20197;-65
2022/08/18 16:07:16;;;;;;;4.40;4.10;;;;;;;;;;5080451;28;20194;-64
2022/08/18 16:10:09;;;;;;;5.80;5.17;;;;;;;;;;5078414;28;20234;-64
2022/08/18 16:12:39;;;;;;;5.27;4.87;;;;;;;;;;5067960;28;20201;-66
2022/08/18 16:15:22;;;;;;;4.80;4.40;;;;;;;;;;5085724;28;20578;-64
2022/08/18 16:17:55;;;;;;;4.70;4.23;;;;;;;;;;5064099;28;20227;-64